Time;durP1;ratioP1;P1;durP2;ratioP2;P2;SDS_P1;SDS_P2;PMS_P1;PMS_P2;Temp;Humidity;BMP_temperature;BMP_pressure;BME280_temperature;BME280_humidity;BME280_pressure;Samples;Min_cycle;Max_cycle;Signal;HPM_P1;HPM_P2
2021/12/16 00:01:47;;;;;;;102.82;51.70;;;;;;;4.50;100.00;100377.97;2053360;28;20316;-75
2021/12/16 00:03:08;;;;;;;114.07;54.42;;;;;;;4.49;100.00;100379.81;2041062;28;20238;-75
2021/12/16 00:06:02;;;;;;;113.78;50.17;;;;;;;4.45;100.00;100376.03;2041799;28;20237;-74
2021/12/16 00:08:31;;;;;;;112.32;52.22;;;;;;;4.45;100.00;100360.19;2054043;28;20276;-76
2021/12/16 00:09:42;;;;;;;107.78;52.50;;;;;;;4.43;100.00;100364.88;2055358;28;20222;-76
2021/12/16 00:10:52;;;;;;;114.57;54.08;;;;;;;4.39;100.00;100362.91;2054026;28;20582;-75
2021/12/16 00:29:00;;;;;;;124.60;56.45;;;;;;;4.38;100.00;100358.66;2045525;28;20233;-77
2021/12/16 00:30:00;;;;;;;118.28;56.45;;;;;;;4.36;100.00;100369.44;2056103;28;20294;-75
2021/12/16 00:32:38;;;;;;;112.05;54.45;;;;;;;4.36;100.00;100361.50;2046098;28;20568;-77
2021/12/16 00:33:42;;;;;;;114.22;55.78;;;;;;;4.33;100.00;100369.06;2047596;28;20715;-77
2021/12/16 00:34:44;;;;;;;121.60;60.00;;;;;;;4.34;100.00;100371.47;2046539;28;20635;-76
2021/12/16 00:35:48;;;;;;;120.60;58.38;;;;;;;4.33;100.00;100369.06;2046066;28;20225;-76
2021/12/16 00:36:53;;;;;;;119.25;58.60;;;;;;;4.36;100.00;100369.44;2046404;28;20241;-76
2021/12/16 00:37:55;;;;;;;115.15;56.83;;;;;;;4.35;100.00;100357.25;2054113;28;20596;-76
2021/12/16 00:38:57;;;;;;;111.95;57.42;;;;;;;4.34;100.00;100368.84;2053887;28;20229;-76
2021/12/16 00:39:59;;;;;;;116.10;56.60;;;;;;;4.37;100.00;100371.06;2046274;28;20245;-77
2021/12/16 00:41:01;;;;;;;111.20;56.40;;;;;;;4.39;100.00;100357.59;2053976;28;20246;-77
2021/12/16 00:42:09;;;;;;;115.60;54.05;;;;;;;4.44;100.00;100361.22;2053436;28;20230;-77
2021/12/16 00:43:19;;;;;;;112.18;55.58;;;;;;;4.48;100.00;100357.06;2054313;28;20228;-76
2021/12/16 00:44:46;;;;;;;112.95;57.28;;;;;;;4.46;100.00;100368.91;2053930;28;20225;-76
2021/12/16 00:45:57;;;;;;;118.32;57.17;;;;;;;4.43;100.00;100358.75;2053125;28;20737;-76
2021/12/16 00:47:24;;;;;;;121.30;55.53;;;;;;;4.40;100.00;100360.03;2047482;28;20230;-76
2021/12/16 00:48:36;;;;;;;99.03;51.85;;;;;;;4.42;100.00;100355.31;2056398;28;20232;-77
2021/12/16 00:49:42;;;;;;;99.82;50.22;;;;;;;4.46;100.00;100363.63;2053840;28;20236;-76
2021/12/16 00:54:52;;;;;;;103.28;52.55;;;;;;;4.48;100.00;100362.34;2053703;28;20213;-75
2021/12/16 00:55:56;;;;;;;107.68;52.50;;;;;;;4.44;100.00;100340.06;2054547;28;20296;-76
2021/12/16 00:57:03;;;;;;;100.55;50.90;;;;;;;4.45;100.00;100346.97;2053766;28;20233;-76
2021/12/16 00:58:06;;;;;;;96.32;50.08;;;;;;;4.48;100.00;100358.91;2047369;28;20240;-75
2021/12/16 00:59:10;;;;;;;99.95;51.75;;;;;;;4.52;100.00;100346.88;2053908;28;20249;-75
2021/12/16 01:00:14;;;;;;;105.32;52.35;;;;;;;4.51;100.00;100355.81;2045903;28;20226;-76
2021/12/16 01:01:34;;;;;;;99.70;52.25;;;;;;;4.50;100.00;100354.19;2046299;28;20226;-77
2021/12/16 01:02:56;;;;;;;111.05;52.63;;;;;;;4.50;100.00;100355.00;2048130;28;20301;-76
2021/12/16 01:04:20;;;;;;;99.00;50.67;;;;;;;4.52;100.00;100352.97;2041199;28;20717;-77
2021/12/16 01:07:11;;;;;;;106.10;52.65;;;;;;;4.57;100.00;100359.41;2045005;28;20684;-76
2021/12/16 01:08:30;;;;;;;97.18;50.03;;;;;;;4.56;100.00;100349.88;2039729;28;20289;-75
2021/12/16 01:34:17;;;;;;;100.85;49.42;;;;;;;4.67;100.00;100335.88;2053445;28;20225;-76
2021/12/16 01:35:26;;;;;;;88.18;48.38;;;;;;;4.63;100.00;100337.38;2047005;28;20221;-76
2021/12/16 01:36:47;;;;;;;91.47;48.38;;;;;;;4.58;100.00;100329.31;2046420;28;20230;-76
2021/12/16 01:40:05;;;;;;;91.75;51.47;;;;;;;4.65;100.00;100336.09;2046023;28;20228;-77
2021/12/16 01:46:38;;;;;;;89.70;47.97;;;;;;;4.61;100.00;100318.28;2055855;28;20284;-76
2021/12/16 01:47:57;;;;;;;94.45;50.58;;;;;;;4.60;100.00;100320.09;2053125;28;20252;-78
2021/12/16 01:49:16;;;;;;;90.55;49.03;;;;;;;4.60;100.00;100317.47;2047556;28;20298;-76
2021/12/16 01:50:25;;;;;;;95.13;49.97;;;;;;;4.57;100.00;100315.28;2049253;28;20228;-76
2021/12/16 01:51:38;;;;;;;90.82;49.85;;;;;;;4.64;100.00;100312.56;2047965;28;20709;-76
2021/12/16 01:55:38;;;;;;;87.50;48.67;;;;;;;4.59;100.00;100310.56;2052704;28;20228;-76
2021/12/16 01:56:46;;;;;;;94.47;49.75;;;;;;;4.62;100.00;100304.84;2048068;28;20296;-77
2021/12/16 01:57:52;;;;;;;87.85;49.25;;;;;;;4.61;100.00;100297.97;2048172;28;20263;-76
2021/12/16 01:59:01;;;;;;;95.03;48.85;;;;;;;4.58;100.00;100305.50;2047290;28;20269;-76
2021/12/16 02:00:09;;;;;;;101.55;50.72;;;;;;;4.57;100.00;100302.06;2047977;28;20241;-76
2021/12/16 02:01:22;;;;;;;91.00;48.97;;;;;;;4.57;100.00;100309.19;2048565;28;20237;-76
2021/12/16 02:02:38;;;;;;;90.00;49.78;;;;;;;4.63;100.00;100303.00;2051599;28;20278;-78
2021/12/16 02:03:44;;;;;;;89.18;50.72;;;;;;;4.59;100.00;100297.34;2054895;28;20263;-77
2021/12/16 02:05:08;;;;;;;87.47;50.13;;;;;;;4.65;100.00;100304.38;2042851;28;20233;-76
2021/12/16 02:06:27;;;;;;;91.00;49.78;;;;;;;4.66;100.00;100305.19;2049994;28;20284;-76
2021/12/16 02:07:48;;;;;;;93.72;49.78;;;;;;;4.66;100.00;100300.72;2054654;28;20221;-76
2021/12/16 02:08:52;;;;;;;84.90;47.38;;;;;;;4.64;100.00;100300.13;2049485;28;20222;-76
2021/12/16 02:10:01;;;;;;;94.18;48.28;;;;;;;4.60;100.00;100300.81;2043204;28;20304;-77
2021/12/16 02:11:18;;;;;;;91.43;49.13;;;;;;;4.54;100.00;100294.59;2045757;28;20305;-76
2021/12/16 02:12:42;;;;;;;89.53;49.35;;;;;;;4.54;100.00;100295.41;2048656;28;20221;-76
2021/12/16 02:28:52;;;;;;;87.78;49.10;;;;;;;4.54;100.00;100298.03;2095091;27;20563;-74
2021/12/16 02:30:13;;;;;;;91.75;50.53;;;;;;;4.53;100.00;100298.28;2093575;28;20243;-75
2021/12/16 02:31:29;;;;;;;92.25;49.28;;;;;;;4.53;100.00;100291.16;2101392;28;20696;-75
2021/12/16 02:32:45;;;;;;;87.32;49.53;;;;;;;4.58;100.00;100298.38;2084667;28;20225;-75
2021/12/16 02:35:26;;;;;;;85.57;49.08;;;;;;;4.56;100.00;100292.53;2078959;28;20691;-76
2021/12/16 02:36:37;;;;;;;88.30;49.80;;;;;;;4.56;100.00;100295.16;2070745;28;22212;-75
2021/12/16 02:37:45;;;;;;;99.05;49.58;;;;;;;4.51;100.00;100295.03;2069621;28;20229;-76
2021/12/16 02:38:50;;;;;;;95.28;50.80;;;;;;;4.51;100.00;100293.19;2069915;28;20228;-75
2021/12/16 02:39:52;;;;;;;102.20;52.50;;;;;;;4.51;100.00;100295.84;2085832;28;20252;-75
2021/12/16 02:40:55;;;;;;;90.07;50.30;;;;;;;4.55;100.00;100296.22;2084640;28;20607;-76
2021/12/16 02:42:00;;;;;;;85.75;48.55;;;;;;;4.67;100.00;100290.94;2076805;28;20239;-75
2021/12/16 02:43:19;;;;;;;90.20;50.40;;;;;;;4.64;100.00;100296.69;2076879;28;20546;-75
2021/12/16 02:44:39;;;;;;;91.93;49.13;;;;;;;4.69;100.00;100288.88;2071025;28;20231;-75
2021/12/16 02:48:29;;;;;;;96.07;49.58;;;;;;;4.58;100.00;100292.28;2083613;28;20281;-75
2021/12/16 02:49:31;;;;;;;93.05;49.45;;;;;;;4.54;100.00;100292.75;2085124;28;20234;-75
2021/12/16 02:50:32;;;;;;;91.10;51.63;;;;;;;4.54;100.00;100289.31;2076974;28;20578;-75
2021/12/16 02:51:34;;;;;;;92.13;50.97;;;;;;;4.56;100.00;100289.09;2076854;28;20222;-76
2021/12/16 02:52:36;;;;;;;94.70;52.55;;;;;;;4.65;100.00;100300.94;2085189;28;20276;-75
2021/12/16 02:53:40;;;;;;;89.03;51.20;;;;;;;4.66;100.00;100295.41;2085141;28;20222;-75
2021/12/16 02:54:42;;;;;;;92.57;51.63;;;;;;;4.63;100.00;100301.16;2082749;28;20227;-76
2021/12/16 02:55:43;;;;;;;93.05;51.38;;;;;;;4.64;100.00;100301.97;2091899;28;20806;-76
2021/12/16 02:56:45;;;;;;;95.93;53.60;;;;;;;4.64;100.00;100291.41;2084883;28;20586;-76
2021/12/16 02:57:51;;;;;;;93.15;52.35;;;;;;;4.62;100.00;100296.91;2093257;28;20449;-75
2021/12/16 02:58:55;;;;;;;96.97;54.00;;;;;;;4.62;100.00;100304.03;2092752;28;20226;-75
2021/12/16 02:59:58;;;;;;;89.53;50.08;;;;;;;4.62;100.00;100296.13;2084505;28;20288;-75
2021/12/16 03:01:05;;;;;;;92.50;52.05;;;;;;;4.64;100.00;100300.13;2083884;28;20222;-75
2021/12/16 03:02:11;;;;;;;97.65;52.50;;;;;;;4.60;100.00;100296.31;2077670;28;20592;-76
2021/12/16 03:03:15;;;;;;;94.85;52.55;;;;;;;4.59;100.00;100296.53;2084465;28;20249;-76
2021/12/16 03:04:18;;;;;;;93.93;52.38;;;;;;;4.57;100.00;100295.97;2084998;28;20218;-75
2021/12/16 03:05:22;;;;;;;91.75;53.10;;;;;;;4.54;100.00;100292.75;2085641;28;20297;-76
2021/12/16 03:06:27;;;;;;;91.95;51.88;;;;;;;4.58;100.00;100295.75;2085355;28;20257;-76
2021/12/16 03:07:29;;;;;;;97.70;52.58;;;;;;;4.56;100.00;100297.81;2084810;28;20238;-76
2021/12/16 03:08:31;;;;;;;93.88;51.70;;;;;;;4.57;100.00;100285.41;2084820;28;20310;-76
2021/12/16 03:10:20;;;;;;;98.95;52.50;;;;;;;4.53;100.00;100285.06;2084882;28;20269;-75
2021/12/16 03:11:16;;;;;;;99.22;51.50;;;;;;;4.58;100.00;100287.00;2080223;28;20223;-75
2021/12/16 03:14:20;;;;;;;91.80;50.40;;;;;;;4.60;100.00;100284.94;2067419;28;20633;-75
2021/12/16 03:15:36;;;;;;;98.70;52.92;;;;;;;4.60;100.00;100284.94;2059981;28;20221;-75
2021/12/16 03:16:49;;;;;;;95.55;51.83;;;;;;;4.59;100.00;100284.13;2053850;28;20244;-75
2021/12/16 03:17:57;;;;;;;94.30;51.20;;;;;;;4.58;100.00;100277.25;2061405;28;20225;-75
2021/12/16 03:19:11;;;;;;;91.40;52.83;;;;;;;4.59;100.00;100296.53;2059748;28;20241;-75
2021/12/16 03:20:19;;;;;;;93.60;53.05;;;;;;;4.58;100.00;100287.00;2083359;28;20257;-76
2021/12/16 03:21:26;;;;;;;94.13;50.85;;;;;;;4.57;100.00;100285.41;2084903;28;20211;-76
2021/12/16 03:22:49;;;;;;;90.20;53.00;;;;;;;4.56;100.00;100274.03;2077225;28;20285;-76
2021/12/16 03:24:22;;;;;;;98.97;52.30;;;;;;;4.56;100.00;100284.59;2084909;28;20245;-76
2021/12/16 03:25:34;;;;;;;99.53;53.65;;;;;;;4.53;100.00;100271.84;2081854;28;20227;-77
2021/12/16 03:31:30;;;;;;;99.57;53.15;;;;;;;4.54;100.00;100282.19;2075906;28;20577;-76
2021/12/16 03:34:37;;;;;;;101.00;54.00;;;;;;;4.53;100.00;100285.06;2063870;28;20228;-76
2021/12/16 03:35:51;;;;;;;105.93;53.28;;;;;;;4.55;100.00;100293.56;2059218;28;20738;-77
2021/12/16 03:37:15;;;;;;;113.57;54.13;;;;;;;4.54;100.00;100292.75;2069806;28;20314;-75
2021/12/16 03:38:16;;;;;;;111.18;54.38;;;;;;;4.50;100.00;100296.88;2064314;28;20245;-76
2021/12/16 03:39:20;;;;;;;108.28;55.47;;;;;;;4.52;100.00;100296.66;2058484;28;20216;-75
2021/12/16 03:40:22;;;;;;;105.53;52.55;;;;;;;4.51;100.00;100301.13;2077755;28;20226;-76
2021/12/16 03:41:26;;;;;;;116.68;53.83;;;;;;;4.52;100.00;100307.25;2070802;28;20783;-75
2021/12/16 03:42:30;;;;;;;105.05;54.55;;;;;;;4.49;100.00;100302.38;2079569;28;20314;-77
2021/12/16 03:43:35;;;;;;;107.60;52.00;;;;;;;4.52;100.00;100308.03;2079153;28;20597;-75
2021/12/16 03:44:51;;;;;;;113.15;54.60;;;;;;;4.52;100.00;100302.75;2071571;28;20227;-76
2021/12/16 03:47:34;;;;;;;116.50;54.72;;;;;;;4.45;100.00;100302.03;2078663;28;20646;-76
2021/12/16 03:48:40;;;;;;;119.43;54.25;;;;;;;4.50;100.00;100306.63;2072721;28;20227;-76
2021/12/16 03:49:42;;;;;;;116.43;55.00;;;;;;;4.53;100.00;100301.72;2079157;28;20233;-75
2021/12/16 03:50:44;;;;;;;122.78;56.47;;;;;;;4.48;100.00;100298.94;2079015;28;20245;-76
2021/12/16 03:51:50;;;;;;;112.68;53.83;;;;;;;4.50;100.00;100294.22;2079136;28;20700;-75
2021/12/16 03:52:51;;;;;;;116.85;53.92;;;;;;;4.50;100.00;100296.06;2079583;28;20223;-76
2021/12/16 03:53:56;;;;;;;121.57;56.80;;;;;;;4.49;100.00;100299.75;2076680;28;20223;-77
2021/12/16 03:55:03;;;;;;;128.65;57.13;;;;;;;4.47;100.00;100297.34;2070905;28;20601;-76
2021/12/16 03:56:06;;;;;;;120.57;58.03;;;;;;;4.46;100.00;100294.91;2070637;28;20226;-76
2021/12/16 03:57:23;;;;;;;130.85;58.72;;;;;;;4.49;100.00;100300.53;2064260;28;20216;-76
2021/12/16 03:58:24;;;;;;;124.00;57.00;;;;;;;4.50;100.00;100299.50;2087696;28;20268;-76
2021/12/16 03:59:32;;;;;;;123.15;56.30;;;;;;;4.49;100.00;100310.31;2086837;28;20782;-76
2021/12/16 04:00:55;;;;;;;139.85;57.47;;;;;;;4.48;100.00;100301.56;2088945;28;20731;-76
2021/12/16 04:02:00;;;;;;;134.93;57.92;;;;;;;4.46;100.00;100301.00;2084915;28;20230;-76
2021/12/16 04:03:12;;;;;;;121.63;55.75;;;;;;;4.47;100.00;100305.25;2087149;28;20226;-76
2021/12/16 04:04:15;;;;;;;138.15;57.08;;;;;;;4.49;100.00;100305.84;2094675;28;20245;-76
2021/12/16 04:05:19;;;;;;;128.35;54.70;;;;;;;4.49;100.00;100307.66;2079771;28;20219;-76
2021/12/16 04:06:23;;;;;;;142.77;59.35;;;;;;;4.48;100.00;100309.50;2079122;28;20223;-75
2021/12/16 04:07:28;;;;;;;140.82;57.72;;;;;;;4.47;100.00;100302.63;2070588;28;20602;-76
2021/12/16 04:08:57;;;;;;;139.23;57.13;;;;;;;4.55;100.00;100309.41;2075405;28;20289;-76
2021/12/16 04:10:01;;;;;;;136.35;58.35;;;;;;;4.53;100.00;100300.91;2078984;28;20223;-76
2021/12/16 04:11:06;;;;;;;131.77;56.75;;;;;;;4.52;100.00;100305.41;2070859;28;20248;-76
2021/12/16 04:12:20;;;;;;;148.15;58.42;;;;;;;4.48;100.00;100312.16;2080329;28;20250;-75
2021/12/16 04:13:22;;;;;;;134.30;57.13;;;;;;;4.47;100.00;100307.91;2079056;28;20306;-76
2021/12/16 04:14:29;;;;;;;144.10;57.40;;;;;;;4.44;100.00;100308.34;2086883;28;20567;-75
2021/12/16 04:15:31;;;;;;;144.40;57.87;;;;;;;4.49;100.00;100315.59;2086095;28;20618;-76
2021/12/16 04:16:36;;;;;;;154.10;60.38;;;;;;;4.44;100.00;100311.00;2087402;28;20672;-75
2021/12/16 04:17:38;;;;;;;153.32;57.30;;;;;;;4.45;100.00;100307.31;2086464;28;20272;-76
2021/12/16 04:18:40;;;;;;;146.65;59.53;;;;;;;4.43;100.00;100308.56;2078491;28;20793;-75
2021/12/16 04:19:42;;;;;;;160.02;60.67;;;;;;;4.44;100.00;100312.84;2085469;28;20230;-75
2021/12/16 04:20:44;;;;;;;158.35;60.50;;;;;;;4.42;100.00;100315.69;2078779;28;20227;-76
2021/12/16 04:21:51;;;;;;;158.23;60.97;;;;;;;4.41;100.00;100308.78;2079048;28;20596;-76
2021/12/16 04:22:54;;;;;;;155.80;59.45;;;;;;;4.40;100.00;100304.53;2078403;28;20235;-77
2021/12/16 04:23:57;;;;;;;159.43;59.22;;;;;;;4.39;100.00;100310.06;2078875;28;20227;-76
2021/12/16 04:25:02;;;;;;;171.77;59.80;;;;;;;4.42;100.00;100313.03;2078927;28;20231;-75
2021/12/16 04:26:05;;;;;;;171.80;60.10;;;;;;;4.42;100.00;100307.75;2071153;28;20219;-75
2021/12/16 04:27:08;;;;;;;162.60;60.38;;;;;;;4.39;100.00;100310.84;2070694;28;20290;-75
2021/12/16 04:28:16;;;;;;;172.93;60.25;;;;;;;4.37;100.00;100306.84;2070526;28;20316;-74
2021/12/16 04:29:19;;;;;;;158.75;58.95;;;;;;;4.38;100.00;100319.00;2071599;28;20226;-74
2021/12/16 04:30:23;;;;;;;171.82;57.90;;;;;;;4.37;100.00;100312.94;2079233;28;20655;-74
2021/12/16 04:31:25;;;;;;;182.57;58.40;;;;;;;4.39;100.00;100310.84;2078353;28;20284;-74
2021/12/16 04:32:27;;;;;;;164.80;59.22;;;;;;;4.37;100.00;100318.22;2070616;28;20682;-74
2021/12/16 04:33:28;;;;;;;178.88;60.28;;;;;;;4.37;100.00;100318.22;2078835;28;20227;-74
2021/12/16 04:34:32;;;;;;;192.90;61.90;;;;;;;4.37;100.00;100326.13;2070727;28;20687;-75
2021/12/16 04:35:36;;;;;;;175.88;57.38;;;;;;;4.36;100.00;100324.53;2070656;28;20308;-74
2021/12/16 04:36:39;;;;;;;195.38;60.97;;;;;;;4.34;100.00;100328.41;2078852;28;20219;-73
2021/12/16 04:37:40;;;;;;;186.90;59.80;;;;;;;4.36;100.00;100321.88;2078228;28;20732;-75
2021/12/16 04:38:46;;;;;;;182.57;58.17;;;;;;;4.33;100.00;100311.75;2070492;28;20278;-74
2021/12/16 04:39:47;;;;;;;200.75;62.60;;;;;;;4.32;100.00;100304.03;2071032;28;20220;-74
2021/12/16 04:40:50;;;;;;;189.35;60.92;;;;;;;4.31;100.00;100321.75;2070658;28;20236;-74
2021/12/16 04:41:55;;;;;;;199.85;61.45;;;;;;;4.29;100.00;100320.34;2070165;28;20228;-74
2021/12/16 04:43:01;;;;;;;196.75;62.75;;;;;;;4.27;100.00;100317.94;2070849;28;20318;-74
2021/12/16 04:44:09;;;;;;;199.38;60.70;;;;;;;4.29;100.00;100313.22;2070552;28;20322;-74
2021/12/16 04:45:15;;;;;;;216.98;62.00;;;;;;;4.27;100.00;100317.94;2078686;28;20246;-74
2021/12/16 04:46:19;;;;;;;212.07;63.45;;;;;;;4.28;100.00;100318.75;2087051;28;20226;-74
2021/12/16 04:47:22;;;;;;;211.73;57.88;;;;;;;4.31;100.00;100319.09;2078586;28;20223;-74
2021/12/16 04:48:23;;;;;;;229.63;62.70;;;;;;;4.32;100.00;100326.00;2086508;28;20231;-74
2021/12/16 04:49:27;;;;;;;201.60;61.60;;;;;;;4.30;100.00;100321.97;2085215;28;20228;-74
2021/12/16 04:50:32;;;;;;;206.88;60.47;;;;;;;4.30;100.00;100317.47;2078687;28;20234;-74
2021/12/16 04:51:38;;;;;;;213.63;62.25;;;;;;;4.29;100.00;100323.81;2077816;28;20227;-75
2021/12/16 04:52:40;;;;;;;204.23;58.25;;;;;;;4.25;100.00;100325.25;2084676;28;20332;-74
2021/12/16 04:53:43;;;;;;;211.27;62.35;;;;;;;4.26;100.00;100329.53;2078645;28;20325;-74
2021/12/16 04:54:46;;;;;;;196.20;56.13;;;;;;;4.25;100.00;100325.25;2078524;28;20579;-75
2021/12/16 04:55:48;;;;;;;232.30;62.00;;;;;;;4.22;100.00;100323.88;2077519;28;20661;-74
2021/12/16 04:56:55;;;;;;;213.18;58.30;;;;;;;4.23;100.00;100325.50;2078633;28;20242;-74
2021/12/16 04:57:58;;;;;;;214.98;60.30;;;;;;;4.24;100.00;100328.94;2070442;28;20227;-74
2021/12/16 04:59:02;;;;;;;191.10;56.53;;;;;;;4.27;100.00;100317.94;2070637;28;20270;-74
2021/12/16 05:00:04;;;;;;;218.50;61.13;;;;;;;4.26;100.00;100321.63;2070544;28;20248;-74
2021/12/16 05:01:09;;;;;;;210.07;60.33;;;;;;;4.25;100.00;100326.06;2076804;28;20237;-75
2021/12/16 05:02:20;;;;;;;214.30;59.17;;;;;;;4.26;100.00;100324.25;2086769;28;20699;-74
2021/12/16 05:03:41;;;;;;;200.55;57.25;;;;;;;4.24;100.00;100329.75;2083547;28;20721;-74
2021/12/16 05:04:43;;;;;;;218.65;56.92;;;;;;;4.20;100.00;100323.31;2078895;28;20314;-75
2021/12/16 05:05:46;;;;;;;209.15;57.40;;;;;;;4.21;100.00;100329.38;2070330;28;20339;-74
2021/12/16 05:06:47;;;;;;;204.05;56.13;;;;;;;4.23;100.00;100330.78;2078051;28;20219;-74
2021/12/16 05:07:49;;;;;;;238.33;58.33;;;;;;;4.21;100.00;100324.09;2078500;28;20247;-74
2021/12/16 05:09:03;;;;;;;245.43;61.35;;;;;;;4.20;100.00;100327.78;2079525;28;20835;-74
2021/12/16 05:10:12;;;;;;;203.23;56.30;;;;;;;4.23;100.00;100333.41;2077788;28;20234;-75
2021/12/16 05:11:17;;;;;;;208.00;55.10;;;;;;;4.23;100.00;100322.03;2070429;28;20303;-75
2021/12/16 05:12:22;;;;;;;227.50;58.97;;;;;;;4.27;100.00;100328.50;2070396;28;20614;-75
2021/12/16 05:13:27;;;;;;;232.93;57.15;;;;;;;4.23;100.00;100324.69;2077817;28;20287;-75
2021/12/16 05:14:27;;;;;;;214.93;57.03;;;;;;;4.22;100.00;100329.16;2071147;28;20698;-75
2021/12/16 05:15:33;;;;;;;237.90;58.05;;;;;;;4.24;100.00;100329.75;2070246;28;20278;-75
2021/12/16 05:16:35;;;;;;;231.38;57.75;;;;;;;4.24;100.00;100335.03;2070336;28;20311;-75
2021/12/16 05:17:42;;;;;;;204.38;54.47;;;;;;;4.26;100.00;100334.81;2070444;28;20220;-75
2021/12/16 05:18:45;;;;;;;217.20;55.15;;;;;;;4.24;100.00;100339.50;2078105;28;20697;-75
2021/12/16 05:19:50;;;;;;;217.50;55.30;;;;;;;4.29;100.00;100342.28;2070572;28;20239;-75
2021/12/16 05:20:55;;;;;;;200.35;56.45;;;;;;;4.28;100.00;100330.13;2070814;28;20220;-75
2021/12/16 05:24:14;;;;;;;195.55;54.25;;;;;;;4.25;100.00;100338.47;2070411;28;20236;-74
2021/12/16 05:24:40;;;;;;;186.90;52.97;;;;;;;4.25;100.00;100341.91;2072262;28;20233;-75
2021/12/16 05:26:03;;;;;;;205.45;55.90;;;;;;;4.21;100.00;100329.38;2071380;28;20226;-74
2021/12/16 05:27:09;;;;;;;194.43;56.10;;;;;;;4.21;100.00;100337.31;2072194;28;20663;-75
2021/12/16 05:28:11;;;;;;;207.52;56.88;;;;;;;4.19;100.00;100337.53;2070305;28;20243;-76
2021/12/16 05:29:12;;;;;;;221.63;58.70;;;;;;;4.21;100.00;100345.25;2070071;28;20239;-76
2021/12/16 05:30:16;;;;;;;222.95;57.28;;;;;;;4.23;100.00;100343.97;2078362;28;20223;-75
2021/12/16 05:31:21;;;;;;;215.95;57.83;;;;;;;4.21;100.00;100345.25;2070555;28;20228;-75
2021/12/16 05:32:23;;;;;;;217.23;56.17;;;;;;;4.19;100.00;100334.91;2070078;28;20691;-75
2021/12/16 05:33:27;;;;;;;211.55;56.33;;;;;;;4.16;100.00;100337.16;2070081;28;20324;-76
2021/12/16 05:34:28;;;;;;;227.80;57.72;;;;;;;4.20;100.00;100347.06;2070377;28;20243;-75
2021/12/16 05:35:30;;;;;;;204.63;56.33;;;;;;;4.20;100.00;100349.72;2070066;28;20221;-75
2021/12/16 05:36:33;;;;;;;213.60;57.78;;;;;;;4.19;100.00;100342.81;2070291;28;20216;-75
2021/12/16 05:37:35;;;;;;;223.38;58.47;;;;;;;4.17;100.00;100344.06;2078365;28;20774;-75
2021/12/16 05:38:37;;;;;;;220.95;57.80;;;;;;;4.23;100.00;100343.16;2078310;28;20227;-75
2021/12/16 05:39:39;;;;;;;212.55;56.58;;;;;;;4.22;100.00;100338.91;2086278;28;20222;-75
2021/12/16 05:40:53;;;;;;;204.73;57.28;;;;;;;4.19;100.00;100342.81;2084739;28;20222;-75
2021/12/16 05:42:01;;;;;;;225.43;58.30;;;;;;;4.18;100.00;100345.69;2070758;28;20215;-75
2021/12/16 05:43:07;;;;;;;200.65;55.17;;;;;;;4.19;100.00;100348.09;2070155;28;20224;-75
2021/12/16 05:44:10;;;;;;;229.93;57.42;;;;;;;4.20;100.00;100338.34;2070514;28;20224;-75
2021/12/16 05:45:12;;;;;;;245.73;58.90;;;;;;;4.19;100.00;100344.66;2070131;28;20216;-75
2021/12/16 05:46:17;;;;;;;209.80;57.25;;;;;;;4.21;100.00;100353.97;2078272;28;20237;-75
2021/12/16 05:47:21;;;;;;;241.77;60.50;;;;;;;4.18;100.00;100348.34;2070554;28;20755;-75
2021/12/16 05:48:27;;;;;;;235.25;57.40;;;;;;;4.18;100.00;100345.69;2062068;28;20227;-75
2021/12/16 05:49:28;;;;;;;223.23;58.35;;;;;;;4.21;100.00;100339.97;2070331;28;20303;-75
2021/12/16 05:50:32;;;;;;;240.23;57.53;;;;;;;4.20;100.00;100348.91;2070119;28;20371;-75
2021/12/16 05:51:39;;;;;;;229.20;57.70;;;;;;;4.19;100.00;100347.31;2070186;28;20678;-75
2021/12/16 05:52:41;;;;;;;227.63;57.92;;;;;;;4.18;100.00;100351.78;2069455;28;20236;-75
2021/12/16 05:53:45;;;;;;;207.50;57.42;;;;;;;4.21;100.00;100353.16;2062701;28;20228;-75
2021/12/16 05:55:01;;;;;;;246.98;58.88;;;;;;;4.20;100.00;100348.91;2063723;28;20659;-75
2021/12/16 05:56:42;;;;;;;219.23;57.47;;;;;;;4.28;100.00;100345.16;2066454;28;20706;-75
2021/12/16 05:57:45;;;;;;;204.10;54.30;;;;;;;4.23;100.00;100353.75;2070756;28;20243;-75
2021/12/16 05:58:49;;;;;;;219.77;58.30;;;;;;;4.22;100.00;100342.38;2069986;28;20227;-76
2021/12/16 05:59:50;;;;;;;222.73;57.90;;;;;;;4.23;100.00;100348.47;2070102;28;20235;-75
2021/12/16 06:00:56;;;;;;;239.65;59.08;;;;;;;4.24;100.00;100358.00;2069936;28;20619;-75
2021/12/16 06:01:59;;;;;;;217.15;57.22;;;;;;;4.20;100.00;100339.16;2078713;28;20700;-75
2021/12/16 06:03:08;;;;;;;225.43;57.80;;;;;;;4.25;100.00;100347.19;2086194;28;20221;-75
2021/12/16 06:04:11;;;;;;;219.18;58.17;;;;;;;4.22;100.00;100354.78;2076133;28;20273;-75
2021/12/16 06:05:13;;;;;;;227.98;59.88;;;;;;;4.23;100.00;100351.91;2086394;28;20600;-75
2021/12/16 06:06:16;;;;;;;237.95;57.40;;;;;;;4.23;100.00;100343.16;2086241;28;20726;-75
2021/12/16 06:07:18;;;;;;;214.63;56.25;;;;;;;4.20;100.00;100357.63;2077930;28;20219;-75
2021/12/16 06:08:21;;;;;;;230.55;58.88;;;;;;;4.20;100.00;100349.72;2070264;28;20243;-75
2021/12/16 06:09:28;;;;;;;231.57;58.58;;;;;;;4.18;100.00;100351.78;2070216;28;20239;-75
2021/12/16 06:11:52;;;;;;;215.48;57.65;;;;;;;4.18;100.00;100367.63;2078498;28;20297;-75
2021/12/16 06:12:53;;;;;;;219.32;56.00;;;;;;;4.24;100.00;100350.06;2078418;28;20719;-76
2021/12/16 06:14:04;;;;;;;234.13;60.10;;;;;;;4.24;100.00;100353.50;2078014;28;20342;-75
2021/12/16 06:15:19;;;;;;;239.07;57.67;;;;;;;4.23;100.00;100349.25;2078260;28;20235;-75
2021/12/16 06:27:11;;;;;;;257.20;62.47;;;;;;;4.26;100.00;100366.53;2094140;28;20308;-76
2021/12/16 06:28:12;;;;;;;239.15;60.53;;;;;;;4.26;100.00;100363.88;2084932;28;20816;-76
2021/12/16 06:29:14;;;;;;;234.85;62.33;;;;;;;4.25;100.00;100362.25;2077594;28;20677;-76
2021/12/16 06:30:20;;;;;;;245.13;63.45;;;;;;;4.24;100.00;100365.91;2070099;28;20312;-75
2021/12/16 06:31:21;;;;;;;236.80;62.42;;;;;;;4.28;100.00;100350.44;2077538;28;20227;-76
2021/12/16 06:32:25;;;;;;;240.02;63.70;;;;;;;4.30;100.00;100353.66;2094345;28;20238;-76
2021/12/16 06:33:26;;;;;;;241.25;64.85;;;;;;;4.30;100.00;100354.47;2093693;28;20766;-76
2021/12/16 06:34:28;;;;;;;245.63;63.55;;;;;;;4.33;100.00;100353.22;2078744;28;20629;-76
2021/12/16 06:35:31;;;;;;;220.88;63.60;;;;;;;4.30;100.00;100351.81;2078390;28;20310;-76
2021/12/16 06:36:32;;;;;;;221.95;60.25;;;;;;;4.31;100.00;100366.66;2078008;28;20226;-76
2021/12/16 06:37:34;;;;;;;225.20;60.80;;;;;;;4.32;100.00;100351.59;2069744;28;20223;-76
2021/12/16 06:38:37;;;;;;;212.35;62.45;;;;;;;4.30;100.00;100374.81;2069820;28;20228;-76
2021/12/16 06:40:10;;;;;;;226.52;64.15;;;;;;;4.30;100.00;100365.03;2062791;28;20249;-76
2021/12/16 06:41:34;;;;;;;216.95;61.80;;;;;;;4.33;100.00;100369.88;2077737;28;20309;-76
2021/12/16 06:42:56;;;;;;;216.35;63.72;;;;;;;4.34;100.00;100366.19;2075183;28;20251;-75
2021/12/16 06:44:01;;;;;;;218.60;62.63;;;;;;;4.33;100.00;100363.78;2078280;28;20235;-76
2021/12/16 06:45:07;;;;;;;201.18;61.53;;;;;;;4.36;100.00;100360.72;2085684;28;20302;-76
2021/12/16 06:46:12;;;;;;;200.98;61.83;;;;;;;4.36;100.00;100361.50;2077426;28;20227;-75
2021/12/16 06:47:19;;;;;;;200.98;62.58;;;;;;;4.36;100.00;100369.44;2070258;28;20686;-76
2021/12/16 06:48:27;;;;;;;205.60;62.55;;;;;;;4.33;100.00;100364.59;2078166;28;20227;-75
2021/12/16 06:49:31;;;;;;;206.13;62.55;;;;;;;4.35;100.00;100367.03;2078087;28;20227;-75
2021/12/16 06:50:44;;;;;;;203.07;61.70;;;;;;;4.36;100.00;100366.78;2077902;28;20302;-75